METAR AND TAF INFORMATION
METAR FOR ENBR
ADDS - METARS form results

(0815 UTC 27 May 2020)
Data provider http://aviationweather.gov/metar/data/
 
METAR text: ENBR 270750Z 26010KT 9999 SCT008 BKN013 09/08 Q1033 TEMPO BKN015 RMK WIND 1200FT 28016KT
Conditions at: ENBR (BERGEN/FLESLAND , NO) observed 0750 UTC 27 May 2020
Temperature: 9.0°C (48°F)
Dewpoint: 8.0°C (46°F) [RH = 93%]
Pressure (altimeter): 30.50 inches Hg (1033.0 mb)
Winds: from the W (260 degrees) at 12 MPH (10 knots; 5.1 m/s)
Visibility: 6 or more miles (10+ km)
Ceiling: 1300 feet AGL
Clouds: scattered clouds at 800 feet AGL
broken clouds at 1300 feet AGL
Weather: no significant weather observed at this time

METAR text: ENBR 270720Z 26010KT 230V300 9999 SCT008 BKN013 09/07 Q1033 TEMPO BKN015 RMK WIND 1200FT 27017KT
Conditions at: ENBR (BERGEN/FLESLAND , NO) observed 0720 UTC 27 May 2020
Temperature: 9.0°C (48°F)
Dewpoint: 7.0°C (45°F) [RH = 87%]
Pressure (altimeter): 30.50 inches Hg (1033.0 mb)
Winds: from the W (260 degrees) at 12 MPH (10 knots; 5.1 m/s)
Visibility: 6 or more miles (10+ km)
Ceiling: 1300 feet AGL
Clouds: scattered clouds at 800 feet AGL
broken clouds at 1300 feet AGL
Weather: no significant weather observed at this time

Forecast for: ENBR (BERGEN/FLESLAND , NO)
Text: TAF ENBR 2706/2806 22008KT 9999 SCT005 BKN018
Forecast period: 0600 UTC 27 May 2020 to 0600 UTC 28 May 2020
Forecast type: FROM: standard forecast or significant change
Winds: from the SW (220 degrees) at 9 MPH (8 knots; 4.1 m/s)
Visibility: 6 or more miles 10+ km)
Ceiling: 1800 feet AGL
Clouds: scattered clouds at 500 feet AGL
broken clouds at 1800 feet AGL
Weather: no significant weather forecast for this period
Text: TEMPO 2706/2718 SHRA BKN012TCU
Forecast period: 0600 to 1800 UTC 27 May 2020
Forecast type: TEMPORARY: The following changes expected for less than half the time period
Visibility: missing
Ceiling: 1200 feet AGL
Clouds: broken clouds at 1200 feet AGL
Weather: SHRA  (rain showers)

 AIRPORT MAP

 RUNWAY INFORMATION
Runway 17 Runway length 9810 ft Runway width 148 ft
Runway elevation 165 ft Runway displaced threshold 886 ft Runway heading 171
Runway 35 Runway length 9810 ft Runway width 148 ft
Runway elevation 146 ft Runway displaced threshold 889 ft Runway heading 351

 AIRPORT FREQUENCIES
Type APP Name RADAR Frequency 121 MHZ
Type ARR Name ARR Frequency 125 MHZ
Type ATIS Name ATIS Frequency 125.25 MHZ
Type DIR Name DIRECTOR Frequency 118.85 MHZ
Type GND Name GND Frequency 121.9 MHZ
Type TWR Name TWR Frequency 119.1 MHZ

 AIRPORT NEAR NAVIGATION AIDS
Type NDB Name Askoy Frequency 360 KHZ
Type NDB Name Bratta Frequency 336 KHZ
Type TACAN Name Flesland Frequency 114500 KHZ
Type VOR-DME Name Flesland Frequency 115550 KHZ
Type VOR-DME Name Vollo Frequency 114850 KHZ



Powered by Heron Airways VA. All Rights Reserved © 2009 [v2.6.2]